Time;durP1;ratioP1;P1;durP2;ratioP2;P2;SDS_P1;SDS_P2;PMS_P1;PMS_P2;Temp;Humidity;BMP_temperature;BMP_pressure;BME280_temperature;BME280_humidity;BME280_pressure;Samples;Min_cycle;Max_cycle;Signal;HPM_P1;HPM_P2
2023/04/17 00:02:12;;;;;;;18.77;13.27;;;7.60;99.90;;;;;;5074702;28;20035;-75
2023/04/17 00:04:39;;;;;;;18.98;12.75;;;7.60;99.90;;;;;;5073542;28;20024;-75
2023/04/17 00:07:05;;;;;;;19.58;13.10;;;7.60;99.90;;;;;;5074659;28;20111;-76
2023/04/17 00:09:31;;;;;;;21.25;13.20;;;7.60;99.90;;;;;;5074675;28;20029;-75
2023/04/17 00:11:57;;;;;;;21.85;14.68;;;7.60;99.90;;;;;;5074425;28;20036;-75
2023/04/17 00:14:23;;;;;;;22.42;14.45;;;7.60;99.90;;;;;;5074580;28;20029;-75
2023/04/17 00:16:49;;;;;;;21.00;14.50;;;7.60;99.90;;;;;;5072353;28;20029;-75
2023/04/17 00:19:14;;;;;;;23.88;14.63;;;7.60;99.90;;;;;;5073167;28;20126;-75
2023/04/17 00:21:40;;;;;;;24.98;14.90;;;7.60;99.90;;;;;;5074375;28;20485;-75
2023/04/17 00:24:06;;;;;;;22.77;13.70;;;7.60;99.90;;;;;;5074361;28;20131;-76
2023/04/17 00:26:33;;;;;;;20.70;14.75;;;7.60;99.90;;;;;;5072988;28;20013;-76
2023/04/17 00:29:02;;;;;;;21.42;13.38;;;7.70;99.90;;;;;;5074180;28;20052;-75
2023/04/17 00:31:27;;;;;;;22.30;14.45;;;7.60;99.90;;;;;;5074071;28;20028;-75
2023/04/17 00:33:53;;;;;;;20.88;14.68;;;7.60;99.90;;;;;;5072628;28;20049;-75
2023/04/17 00:36:19;;;;;;;28.63;15.30;;;7.70;99.90;;;;;;5074008;28;20024;-75
2023/04/17 00:38:44;;;;;;;24.17;15.25;;;7.60;99.90;;;;;;5072715;28;20537;-75
2023/04/17 00:41:10;;;;;;;22.27;14.48;;;7.60;99.90;;;;;;5073929;28;20020;-75
2023/04/17 00:43:36;;;;;;;25.33;15.73;;;7.60;99.90;;;;;;5072774;28;20017;-75
2023/04/17 00:46:04;;;;;;;25.00;15.85;;;7.60;99.90;;;;;;5072607;28;20020;-76
2023/04/17 00:48:31;;;;;;;23.38;15.38;;;7.60;99.90;;;;;;5073711;28;20021;-75
2023/04/17 00:51:01;;;;;;;25.67;15.98;;;7.60;99.90;;;;;;5073825;28;20017;-75
2023/04/17 00:53:28;;;;;;;25.05;16.25;;;7.60;99.90;;;;;;5073627;28;20032;-74
2023/04/17 00:55:54;;;;;;;25.88;15.90;;;7.50;99.90;;;;;;5072444;28;20021;-75
2023/04/17 00:58:20;;;;;;;23.80;15.23;;;7.50;99.90;;;;;;5073794;28;20035;-76
2023/04/17 01:00:47;;;;;;;23.15;16.15;;;7.40;99.90;;;;;;5072335;28;20115;-75
2023/04/17 01:03:13;;;;;;;24.17;16.02;;;7.40;99.90;;;;;;5073614;28;20013;-75
2023/04/17 01:05:39;;;;;;;24.45;15.55;;;7.40;99.90;;;;;;5073646;28;20160;-75
2023/04/17 01:08:05;;;;;;;26.25;16.25;;;7.30;99.90;;;;;;5072238;28;20032;-76
2023/04/17 01:10:31;;;;;;;23.45;15.77;;;7.30;99.90;;;;;;5073602;28;20394;-75
2023/04/17 01:13:04;;;;;;;24.27;16.73;;;7.30;99.90;;;;;;5073469;28;20107;-75
2023/04/17 01:15:30;;;;;;;28.50;18.25;;;7.30;99.90;;;;;;5072104;28;20016;-75
2023/04/17 01:17:56;;;;;;;25.20;16.40;;;7.30;99.90;;;;;;5072292;28;20027;-75
2023/04/17 01:20:24;;;;;;;25.90;16.05;;;7.30;99.90;;;;;;5073322;28;20062;-76
2023/04/17 01:22:50;;;;;;;27.58;15.82;;;7.20;99.90;;;;;;5073399;28;20099;-76
2023/04/17 01:25:16;;;;;;;22.05;15.38;;;7.10;99.90;;;;;;5072079;28;20024;-75
2023/04/17 01:27:42;;;;;;;24.73;16.45;;;7.10;99.90;;;;;;5071975;28;20028;-75
2023/04/17 01:30:08;;;;;;;25.48;16.15;;;6.90;99.90;;;;;;5073403;28;20025;-75
2023/04/17 01:32:34;;;;;;;26.33;17.27;;;6.90;99.90;;;;;;5073015;28;20048;-75
2023/04/17 01:35:00;;;;;;;24.27;16.48;;;6.80;99.90;;;;;;5073239;28;20032;-75
2023/04/17 01:37:26;;;;;;;25.90;17.40;;;6.90;99.90;;;;;;5073137;28;20024;-75
2023/04/17 01:39:52;;;;;;;29.40;17.48;;;6.90;99.90;;;;;;5072074;28;20393;-75
2023/04/17 01:42:17;;;;;;;33.78;18.73;;;6.90;99.90;;;;;;5071950;28;20036;-76
2023/04/17 01:44:43;;;;;;;27.17;17.15;;;6.90;99.90;;;;;;5073313;28;20035;-75
2023/04/17 01:47:08;;;;;;;29.73;17.55;;;6.90;99.90;;;;;;5071924;28;20112;-75
2023/04/17 01:49:34;;;;;;;28.80;18.23;;;6.90;99.90;;;;;;5073044;28;20066;-75
2023/04/17 01:52:00;;;;;;;28.25;17.55;;;6.90;99.90;;;;;;5071692;28;20017;-75
2023/04/17 01:54:25;;;;;;;28.85;17.65;;;7.00;99.90;;;;;;5073071;28;20029;-75
2023/04/17 01:56:52;;;;;;;26.00;17.40;;;7.00;99.90;;;;;;5071813;28;20017;-75
2023/04/17 01:59:17;;;;;;;30.13;19.45;;;7.00;99.90;;;;;;5071909;28;20025;-75
2023/04/17 02:01:43;;;;;;;26.38;17.60;;;7.00;99.90;;;;;;5071729;28;20359;-75
2023/04/17 02:04:09;;;;;;;27.00;17.38;;;7.00;99.90;;;;;;5073048;28;20032;-75
2023/04/17 02:06:34;;;;;;;26.98;17.92;;;6.90;99.90;;;;;;5072636;28;20059;-75
2023/04/17 02:09:00;;;;;;;30.42;18.23;;;6.90;99.90;;;;;;5072863;28;20127;-75
2023/04/17 02:11:26;;;;;;;29.08;18.33;;;6.90;99.90;;;;;;5071658;28;20107;-75
2023/04/17 02:13:52;;;;;;;28.40;18.45;;;6.90;99.90;;;;;;5072883;28;20040;-76
2023/04/17 02:16:20;;;;;;;28.75;19.00;;;6.90;99.90;;;;;;5071630;28;20017;-75
2023/04/17 02:18:46;;;;;;;30.77;18.88;;;6.80;99.90;;;;;;5072904;28;20044;-75
2023/04/17 02:21:12;;;;;;;30.30;18.55;;;6.80;99.90;;;;;;5071690;28;20016;-76
2023/04/17 02:23:37;;;;;;;27.70;17.67;;;6.80;99.90;;;;;;5071606;28;20031;-75
2023/04/17 02:26:03;;;;;;;33.50;19.85;;;6.70;99.90;;;;;;5071482;28;20107;-75
2023/04/17 02:28:29;;;;;;;29.20;18.65;;;6.70;99.90;;;;;;5072758;28;20462;-75
2023/04/17 02:30:54;;;;;;;29.75;18.90;;;6.70;99.90;;;;;;5072697;28;20028;-76
2023/04/17 02:33:20;;;;;;;34.20;20.65;;;6.70;99.90;;;;;;5071092;28;20055;-75
2023/04/17 02:35:46;;;;;;;31.95;19.83;;;6.70;99.90;;;;;;5072628;28;20101;-75
2023/04/17 02:38:11;;;;;;;38.75;20.50;;;6.70;99.90;;;;;;5072799;28;20108;-75
2023/04/17 02:40:37;;;;;;;31.00;18.77;;;6.60;99.90;;;;;;5074867;28;20568;-74
2023/04/17 02:43:03;;;;;;;34.05;21.83;;;6.60;99.90;;;;;;5074908;28;20020;-75
2023/04/17 02:45:29;;;;;;;33.17;21.13;;;6.60;99.90;;;;;;5076211;28;20021;-75
2023/04/17 02:47:55;;;;;;;33.95;22.10;;;6.60;99.90;;;;;;5076206;28;20021;-75
2023/04/17 02:50:21;;;;;;;36.13;22.15;;;6.60;99.90;;;;;;5074972;28;20107;-75
2023/04/17 02:52:46;;;;;;;34.08;21.20;;;6.60;99.90;;;;;;5074722;28;20037;-75
2023/04/17 02:55:12;;;;;;;34.38;20.10;;;6.60;99.90;;;;;;5076126;28;20060;-75
2023/04/17 02:57:38;;;;;;;35.22;20.70;;;6.60;99.90;;;;;;5075993;28;20527;-76
2023/04/17 03:00:13;;;;;;;36.47;21.45;;;6.60;99.90;;;;;;5074824;28;20453;-75
2023/04/17 03:02:39;;;;;;;35.33;21.08;;;6.50;99.90;;;;;;5075881;28;20021;-75
2023/04/17 03:05:05;;;;;;;35.70;21.50;;;6.50;99.90;;;;;;5074641;28;20101;-75
2023/04/17 03:07:32;;;;;;;32.63;20.23;;;6.40;99.90;;;;;;5075690;28;20052;-75
2023/04/17 03:09:58;;;;;;;34.10;21.30;;;6.20;99.90;;;;;;5075854;28;20367;-75
2023/04/17 03:12:24;;;;;;;40.97;22.80;;;6.10;99.90;;;;;;5075642;28;20039;-75
2023/04/17 03:14:50;;;;;;;36.83;22.25;;;6.10;99.90;;;;;;5075614;28;20020;-75
2023/04/17 03:17:16;;;;;;;35.65;21.40;;;6.00;99.90;;;;;;5075769;28;20016;-74
2023/04/17 03:19:42;;;;;;;35.25;21.10;;;6.10;99.90;;;;;;5074300;28;20025;-75
2023/04/17 03:22:07;;;;;;;36.80;21.05;;;6.10;99.90;;;;;;5075631;28;20032;-74
2023/04/17 03:24:33;;;;;;;35.50;22.17;;;6.10;99.90;;;;;;5075432;28;20027;-75
2023/04/17 03:27:01;;;;;;;34.97;21.48;;;6.10;99.90;;;;;;5075367;28;20012;-74
2023/04/17 03:29:26;;;;;;;36.63;20.95;;;6.10;99.90;;;;;;5075430;28;20060;-74
2023/04/17 03:31:52;;;;;;;37.75;22.08;;;6.10;99.90;;;;;;5073728;28;20091;-74
2023/04/17 03:34:19;;;;;;;37.22;23.50;;;6.10;99.90;;;;;;5074180;28;20025;-74
2023/04/17 03:36:45;;;;;;;43.40;24.08;;;6.10;99.90;;;;;;5075084;28;20028;-74
2023/04/17 03:39:11;;;;;;;43.80;22.65;;;6.10;99.90;;;;;;5075367;28;20020;-74
2023/04/17 03:41:37;;;;;;;39.28;22.67;;;6.10;99.90;;;;;;5073692;28;20498;-74
2023/04/17 03:44:03;;;;;;;42.92;23.35;;;6.10;99.90;;;;;;5075113;28;20024;-74
2023/04/17 03:46:29;;;;;;;38.20;22.23;;;6.10;99.90;;;;;;5075142;28;20017;-75
2023/04/17 03:48:54;;;;;;;47.20;24.85;;;6.10;99.90;;;;;;5075105;28;20029;-75
2023/04/17 03:51:20;;;;;;;45.88;25.73;;;6.20;99.90;;;;;;5075156;28;20100;-74
2023/04/17 03:53:46;;;;;;;43.85;23.17;;;6.20;99.90;;;;;;5074768;28;20035;-75
2023/04/17 03:56:12;;;;;;;47.15;25.27;;;6.20;99.90;;;;;;5074709;28;20055;-75
2023/04/17 03:58:37;;;;;;;50.03;24.98;;;6.20;99.90;;;;;;5073417;28;20071;-76
2023/04/17 04:01:03;;;;;;;45.10;24.45;;;6.20;99.90;;;;;;5074748;28;20025;-75
2023/04/17 04:03:29;;;;;;;44.00;24.85;;;6.20;99.90;;;;;;5074645;28;20019;-74
2023/04/17 04:05:55;;;;;;;45.22;23.48;;;6.10;99.90;;;;;;5073420;28;20020;-75
2023/04/17 04:08:20;;;;;;;43.45;23.70;;;6.10;99.90;;;;;;5074603;28;20020;-75
2023/04/17 04:10:46;;;;;;;47.38;24.77;;;6.10;99.90;;;;;;5074389;28;20025;-74
2023/04/17 04:13:12;;;;;;;48.05;26.67;;;6.10;99.90;;;;;;5074442;28;20107;-75
2023/04/17 04:15:38;;;;;;;44.20;23.88;;;6.10;99.90;;;;;;5074437;28;20469;-76
2023/04/17 04:18:04;;;;;;;48.70;25.25;;;6.10;99.90;;;;;;5074494;28;20093;-75
2023/04/17 04:20:30;;;;;;;46.33;24.70;;;6.10;99.90;;;;;;5074403;28;20428;-75
2023/04/17 04:22:58;;;;;;;44.63;25.27;;;6.20;99.90;;;;;;5066620;28;20055;-75
2023/04/17 04:25:25;;;;;;;44.80;24.42;;;6.30;99.90;;;;;;5054389;28;20471;-74
2023/04/17 04:27:51;;;;;;;49.83;25.63;;;6.30;99.90;;;;;;5053044;28;20509;-74
2023/04/17 04:30:18;;;;;;;43.75;23.85;;;6.40;99.90;;;;;;5052979;28;20519;-74
2023/04/17 04:32:44;;;;;;;42.92;22.85;;;6.50;99.90;;;;;;5052595;28;20075;-75
2023/04/17 04:35:11;;;;;;;46.85;23.63;;;6.50;99.90;;;;;;5054259;28;20545;-75
2023/04/17 04:37:36;;;;;;;42.88;23.73;;;6.60;99.90;;;;;;5054182;28;20144;-75
2023/04/17 04:40:08;;;;;;;41.65;24.63;;;6.70;99.90;;;;;;5052794;28;20116;-75
2023/04/17 04:42:34;;;;;;;44.53;23.77;;;6.80;99.90;;;;;;5054061;28;20056;-75
2023/04/17 04:45:00;;;;;;;44.63;24.08;;;6.90;99.90;;;;;;5052846;28;20052;-76
2023/04/17 04:47:25;;;;;;;46.92;27.10;;;7.00;99.90;;;;;;5052514;28;20017;-75
2023/04/17 04:49:51;;;;;;;45.67;24.77;;;7.00;99.90;;;;;;5053908;28;20050;-75
2023/04/17 04:52:16;;;;;;;44.20;24.30;;;7.10;99.90;;;;;;5052438;28;20033;-76
2023/04/17 04:54:42;;;;;;;43.58;23.80;;;7.20;99.90;;;;;;5052524;28;20152;-75
2023/04/17 04:57:07;;;;;;;44.83;24.50;;;7.20;99.90;;;;;;5052569;28;20036;-75
2023/04/17 04:59:33;;;;;;;45.80;24.85;;;7.30;99.90;;;;;;5053699;28;20517;-76
2023/04/17 05:01:58;;;;;;;48.55;25.42;;;7.30;99.90;;;;;;5053400;28;20028;-75
2023/04/17 05:04:25;;;;;;;41.53;23.58;;;7.30;99.90;;;;;;5052204;28;20025;-75
2023/04/17 05:06:51;;;;;;;45.67;24.85;;;7.30;99.90;;;;;;5053560;28;20047;-75
2023/04/17 05:09:16;;;;;;;44.95;23.77;;;7.30;99.90;;;;;;5052319;28;20108;-75
2023/04/17 05:11:42;;;;;;;42.13;22.50;;;7.30;99.90;;;;;;5053387;28;20390;-75
2023/04/17 05:14:08;;;;;;;46.50;26.02;;;7.40;99.90;;;;;;5053747;28;20029;-75
2023/04/17 05:16:34;;;;;;;44.58;24.10;;;7.40;99.90;;;;;;5052107;28;20052;-74
2023/04/17 05:18:59;;;;;;;45.55;25.20;;;7.40;99.90;;;;;;5068141;28;20048;-74
2023/04/17 05:21:26;;;;;;;42.42;22.60;;;7.50;99.90;;;;;;5072029;28;20017;-74
2023/04/17 05:23:52;;;;;;;37.88;23.20;;;7.60;99.90;;;;;;5073483;28;20111;-75
2023/04/17 05:26:20;;;;;;;42.72;24.23;;;7.80;99.90;;;;;;5073403;28;20056;-75
2023/04/17 05:28:46;;;;;;;40.83;22.08;;;7.90;99.90;;;;;;5073352;28;20023;-76
2023/04/17 05:31:13;;;;;;;40.17;22.85;;;8.00;99.90;;;;;;5072111;28;20378;-75
2023/04/17 05:33:38;;;;;;;41.05;21.77;;;8.00;99.90;;;;;;5071749;28;20041;-75
2023/04/17 05:36:04;;;;;;;34.45;20.85;;;8.00;99.90;;;;;;5073314;28;20020;-74
2023/04/17 05:38:30;;;;;;;38.47;22.10;;;8.10;99.90;;;;;;5070784;28;20052;-74
2023/04/17 05:40:56;;;;;;;40.72;22.52;;;8.30;99.90;;;;;;5069067;28;20061;-77
2023/04/17 05:43:21;;;;;;;38.45;21.67;;;8.40;99.90;;;;;;5071920;28;20404;-77
2023/04/17 05:45:47;;;;;;;36.58;20.20;;;8.50;99.90;;;;;;5072008;28;20516;-76
2023/04/17 05:48:13;;;;;;;38.33;21.23;;;8.50;99.90;;;;;;5071749;28;20020;-76
2023/04/17 05:50:39;;;;;;;35.88;20.05;;;8.60;99.90;;;;;;5073099;28;20543;-76
2023/04/17 05:53:04;;;;;;;37.42;20.58;;;8.70;99.90;;;;;;5073085;28;20367;-77
2023/04/17 05:55:30;;;;;;;37.95;21.02;;;8.80;99.90;;;;;;5073039;28;20017;-77
2023/04/17 05:57:56;;;;;;;35.20;19.58;;;8.80;99.90;;;;;;5073020;28;20021;-78
2023/04/17 06:00:21;;;;;;;35.58;20.77;;;8.90;99.90;;;;;;5071022;28;20019;-77
2023/04/17 06:02:48;;;;;;;31.35;20.33;;;9.00;99.90;;;;;;5071166;28;20106;-78
2023/04/17 06:05:15;;;;;;;36.55;20.42;;;9.10;99.90;;;;;;5068837;28;20009;-78
2023/04/17 06:07:40;;;;;;;38.85;20.08;;;9.10;99.90;;;;;;5070908;28;20029;-75
2023/04/17 06:10:07;;;;;;;35.38;21.23;;;9.20;99.90;;;;;;5071051;28;20017;-74
2023/04/17 06:12:33;;;;;;;38.00;20.90;;;9.30;99.90;;;;;;5071394;28;20394;-75
2023/04/17 06:14:59;;;;;;;38.28;21.45;;;9.40;99.90;;;;;;5073006;28;20363;-76
2023/04/17 06:17:25;;;;;;;34.60;19.02;;;9.30;99.90;;;;;;5075307;28;20090;-75
2023/04/17 06:19:50;;;;;;;34.80;20.60;;;9.00;99.90;;;;;;5076729;28;20028;-75
2023/04/17 06:22:16;;;;;;;37.33;20.38;;;8.80;99.90;;;;;;5074922;28;20020;-76
2023/04/17 06:24:42;;;;;;;39.28;21.45;;;8.60;99.90;;;;;;5074085;28;20448;-76
2023/04/17 06:27:07;;;;;;;38.10;22.23;;;8.40;99.90;;;;;;5075686;28;20081;-75
2023/04/17 06:29:33;;;;;;;38.60;20.75;;;8.40;99.90;;;;;;5075305;28;20493;-75
2023/04/17 06:31:59;;;;;;;39.92;21.25;;;8.40;99.90;;;;;;5073906;28;20044;-75
2023/04/17 06:34:24;;;;;;;42.85;21.88;;;8.50;99.90;;;;;;5075361;28;20039;-75
2023/04/17 06:36:50;;;;;;;38.63;21.80;;;8.60;99.90;;;;;;5075664;28;20390;-77
2023/04/17 06:39:16;;;;;;;39.60;22.10;;;8.60;99.90;;;;;;5076409;28;20020;-77
2023/04/17 06:41:42;;;;;;;41.20;22.88;;;8.80;99.90;;;;;;5075047;28;20048;-78
2023/04/17 06:44:07;;;;;;;38.47;22.33;;;9.00;99.90;;;;;;5076283;28;20021;-78
2023/04/17 06:46:33;;;;;;;45.63;25.23;;;9.10;99.90;;;;;;5075724;28;20100;-77
2023/04/17 06:48:59;;;;;;;44.72;23.88;;;9.30;99.90;;;;;;5076043;28;20112;-77
2023/04/17 06:51:26;;;;;;;35.90;20.50;;;9.30;99.90;;;;;;5076156;28;20124;-77
2023/04/17 06:53:54;;;;;;;40.63;21.02;;;9.40;99.90;;;;;;5074764;28;20033;-77
2023/04/17 06:56:21;;;;;;;33.25;19.95;;;9.50;99.90;;;;;;5075956;28;20063;-79
2023/04/17 06:58:47;;;;;;;34.80;19.20;;;9.70;99.90;;;;;;5075946;28;20032;-75
2023/04/17 07:01:13;;;;;;;31.70;18.67;;;9.80;99.90;;;;;;5075961;28;20017;-75
2023/04/17 07:03:41;;;;;;;32.60;19.00;;;9.90;99.90;;;;;;5075917;28;20021;-77
2023/04/17 07:06:08;;;;;;;30.45;18.35;;;9.90;99.90;;;;;;5075960;28;20052;-76
2023/04/17 07:08:34;;;;;;;33.63;18.95;;;9.90;99.90;;;;;;5073785;28;20426;-75
2023/04/17 07:11:01;;;;;;;35.13;20.30;;;9.90;99.90;;;;;;5075855;28;20060;-75
2023/04/17 07:13:30;;;;;;;41.28;20.65;;;9.90;99.90;;;;;;5075627;28;20032;-75
2023/04/17 07:15:56;;;;;;;33.33;20.90;;;9.90;99.90;;;;;;5075801;28;20118;-75
2023/04/17 07:18:24;;;;;;;37.67;21.40;;;9.80;99.90;;;;;;5074411;28;20390;-75
2023/04/17 07:20:50;;;;;;;36.95;19.77;;;10.10;99.90;;;;;;5074378;28;20498;-75
2023/04/17 07:23:15;;;;;;;33.92;19.98;;;10.30;99.90;;;;;;5074427;28;20025;-75
2023/04/17 07:25:41;;;;;;;34.45;20.90;;;10.20;99.90;;;;;;5081973;28;20028;-75
2023/04/17 07:28:08;;;;;;;37.00;21.40;;;10.40;99.90;;;;;;5094334;28;20016;-76
2023/04/17 07:30:34;;;;;;;34.45;20.17;;;10.50;99.90;;;;;;5094450;28;20066;-75
2023/04/17 07:33:00;;;;;;;30.83;17.63;;;10.80;99.90;;;;;;5095336;28;20048;-76
2023/04/17 07:35:26;;;;;;;33.22;18.63;;;10.90;99.90;;;;;;5095577;28;20377;-75
2023/04/17 07:37:51;;;;;;;26.33;16.65;;;11.00;99.90;;;;;;5095496;28;20024;-76
2023/04/17 07:40:17;;;;;;;28.67;16.75;;;11.00;99.90;;;;;;5094737;28;20024;-76
2023/04/17 07:42:43;;;;;;;28.67;18.92;;;10.90;99.90;;;;;;5082109;28;20028;-75
2023/04/17 07:45:09;;;;;;;32.83;19.00;;;10.90;99.90;;;;;;5072952;28;20100;-76
2023/04/17 07:47:35;;;;;;;38.67;20.23;;;10.90;99.90;;;;;;5073288;28;20051;-77
2023/04/17 07:50:01;;;;;;;26.35;16.02;;;11.00;99.90;;;;;;5072709;28;20468;-77
2023/04/17 07:52:26;;;;;;;27.42;17.48;;;10.90;99.90;;;;;;5070616;28;20041;-76
2023/04/17 07:54:52;;;;;;;27.60;17.08;;;11.20;99.90;;;;;;5071650;28;20025;-77
2023/04/17 07:57:18;;;;;;;26.33;17.05;;;11.50;99.90;;;;;;5071841;28;20033;-75
2023/04/17 07:59:43;;;;;;;27.10;16.42;;;11.70;99.90;;;;;;5070679;28;20493;-76
2023/04/17 08:02:09;;;;;;;26.27;16.20;;;11.70;99.90;;;;;;5071551;28;20398;-76
2023/04/17 08:04:36;;;;;;;29.88;16.60;;;11.70;99.90;;;;;;5070382;28;20025;-76
2023/04/17 08:07:02;;;;;;;23.90;15.65;;;12.00;99.90;;;;;;5072450;28;20031;-76
2023/04/17 08:09:27;;;;;;;24.73;14.43;;;11.90;99.90;;;;;;5072366;28;20382;-75
2023/04/17 08:11:53;;;;;;;26.05;15.85;;;11.70;99.90;;;;;;5071307;28;20024;-76
2023/04/17 08:14:19;;;;;;;23.30;15.43;;;11.70;99.90;;;;;;5052893;28;20095;-76
2023/04/17 08:16:46;;;;;;;23.40;15.38;;;11.50;99.90;;;;;;5051833;28;20033;-76
2023/04/17 08:19:12;;;;;;;25.80;17.40;;;11.30;99.90;;;;;;5071310;28;20052;-77
2023/04/17 08:21:37;;;;;;;26.17;16.92;;;11.10;99.90;;;;;;5073897;28;20022;-76
2023/04/17 08:24:03;;;;;;;33.45;16.95;;;11.20;99.90;;;;;;5071694;28;20023;-75
2023/04/17 08:26:30;;;;;;;27.45;16.00;;;11.50;99.90;;;;;;5074066;28;20409;-77
2023/04/17 08:29:00;;;;;;;22.73;13.75;;;12.00;99.90;;;;;;5073830;28;20389;-77
2023/04/17 08:31:27;;;;;;;24.63;14.25;;;11.90;99.90;;;;;;5073661;28;20032;-77
2023/04/17 08:33:52;;;;;;;24.90;13.65;;;11.80;99.90;;;;;;5073526;28;20052;-77
2023/04/17 08:36:18;;;;;;;22.67;14.73;;;12.10;99.90;;;;;;5072568;28;20012;-78
2023/04/17 08:38:46;;;;;;;24.48;16.17;;;12.20;99.90;;;;;;5071704;28;20031;-77
2023/04/17 08:41:17;;;;;;;24.58;15.93;;;12.20;99.90;;;;;;5073695;28;20067;-77
2023/04/17 08:43:47;;;;;;;25.17;16.23;;;11.90;99.90;;;;;;5072323;28;20020;-77
2023/04/17 08:46:13;;;;;;;24.92;15.50;;;12.20;99.90;;;;;;5073635;28;20473;-77
2023/04/17 08:48:39;;;;;;;21.83;14.77;;;11.90;99.90;;;;;;5072081;28;20020;-77
2023/04/17 08:51:04;;;;;;;24.85;16.33;;;11.90;99.90;;;;;;5072364;28;20027;-77
2023/04/17 08:53:31;;;;;;;22.73;14.85;;;11.70;99.90;;;;;;5072068;28;20032;-77
2023/04/17 08:56:03;;;;;;;21.25;14.38;;;11.60;99.90;;;;;;5072319;28;20103;-76
2023/04/17 08:58:31;;;;;;;21.38;12.57;;;11.60;99.90;;;;;;5071794;28;20078;-78
2023/04/17 09:01:14;;;;;;;18.95;12.32;;;11.70;99.90;;;;;;5073556;28;20032;-78
2023/04/17 09:03:44;;;;;;;19.98;13.40;;;11.90;99.90;;;;;;5071298;28;20020;-79
2023/04/17 09:06:10;;;;;;;24.05;14.63;;;11.90;99.90;;;;;;5073062;28;20534;-78
2023/04/17 09:08:38;;;;;;;22.52;13.63;;;12.10;99.90;;;;;;5071978;28;20111;-79
2023/04/17 09:11:04;;;;;;;23.17;14.10;;;12.30;99.90;;;;;;5073276;28;20442;-79
2023/04/17 09:13:37;;;;;;;22.45;13.68;;;12.30;99.90;;;;;;5071739;28;20036;-78
2023/04/17 09:16:04;;;;;;;20.90;14.05;;;12.20;99.90;;;;;;5071853;28;20044;-78
2023/04/17 09:18:31;;;;;;;25.95;16.15;;;12.10;99.90;;;;;;5071245;28;20119;-77
2023/04/17 09:20:58;;;;;;;23.25;14.88;;;12.10;99.90;;;;;;5071919;28;20160;-77
2023/04/17 09:23:25;;;;;;;20.88;13.60;;;12.00;99.90;;;;;;5071274;28;20423;-78
2023/04/17 09:26:12;;;;;;;21.38;13.80;;;11.80;99.90;;;;;;5072026;28;20096;-77
2023/04/17 09:28:38;;;;;;;23.85;14.93;;;11.60;99.90;;;;;;5071993;28;20047;-78
2023/04/17 09:31:26;;;;;;;25.20;15.90;;;11.30;99.90;;;;;;5073408;28;20036;-77
2023/04/17 09:34:04;;;;;;;25.52;16.58;;;11.20;99.90;;;;;;5071973;28;20151;-77
2023/04/17 09:36:31;;;;;;;25.63;16.70;;;11.30;99.90;;;;;;5072010;28;20373;-77
2023/04/17 09:38:59;;;;;;;25.02;17.73;;;11.20;99.90;;;;;;5070845;28;20032;-78
2023/04/17 09:41:27;;;;;;;25.92;17.27;;;11.20;99.90;;;;;;5071874;28;20024;-76
2023/04/17 09:43:55;;;;;;;28.02;17.23;;;11.20;99.90;;;;;;5072096;28;20025;-76
2023/04/17 09:46:37;;;;;;;25.40;17.70;;;11.40;99.90;;;;;;5065664;28;20054;-78
2023/04/17 09:49:25;;;;;;;28.85;17.85;;;11.80;99.90;;;;;;5052148;28;20083;-77
2023/04/17 09:51:52;;;;;;;22.95;16.65;;;11.80;99.90;;;;;;5054795;28;20107;-78
2023/04/17 09:54:21;;;;;;;23.42;17.10;;;11.90;99.90;;;;;;5076729;28;20032;-77
2023/04/17 09:56:48;;;;;;;23.05;16.48;;;11.90;99.90;;;;;;5076811;28;20100;-78
2023/04/17 09:59:15;;;;;;;26.15;16.60;;;11.70;99.90;;;;;;5076787;28;20013;-76
2023/04/17 10:01:42;;;;;;;25.23;16.98;;;11.70;99.90;;;;;;5076628;28;20470;-76
2023/04/17 10:04:07;;;;;;;26.00;17.27;;;11.70;99.90;;;;;;5075441;28;20013;-76
2023/04/17 10:06:35;;;;;;;22.13;16.30;;;11.80;99.90;;;;;;5075421;28;20065;-76
2023/04/17 10:09:03;;;;;;;22.40;15.98;;;11.70;99.90;;;;;;5075347;28;20016;-76
2023/04/17 10:11:37;;;;;;;26.88;16.50;;;11.70;99.90;;;;;;5075196;28;20029;-77
2023/04/17 10:14:15;;;;;;;26.13;16.73;;;11.80;99.90;;;;;;5075124;28;20448;-76
2023/04/17 10:16:42;;;;;;;23.52;15.90;;;11.80;99.90;;;;;;5076499;28;20028;-76
2023/04/17 10:19:31;;;;;;;25.23;16.98;;;11.70;99.90;;;;;;5075178;28;20024;-76
2023/04/17 10:22:15;;;;;;;28.20;18.25;;;11.80;99.90;;;;;;5076363;28;20021;-76
2023/04/17 10:24:46;;;;;;;26.40;18.15;;;11.70;99.90;;;;;;5074987;28;20111;-75
2023/04/17 10:27:26;;;;;;;25.80;18.15;;;11.70;99.90;;;;;;5076175;28;20087;-77
2023/04/17 10:29:57;;;;;;;28.38;19.15;;;11.60;99.90;;;;;;5076254;28;20032;-76
2023/04/17 10:32:25;;;;;;;27.98;18.25;;;11.40;99.90;;;;;;5076120;28;20118;-77
2023/04/17 10:34:56;;;;;;;29.60;19.83;;;11.40;99.90;;;;;;5076140;28;20027;-77
2023/04/17 10:37:46;;;;;;;29.92;20.05;;;11.20;99.90;;;;;;5076029;28;20020;-75
2023/04/17 10:40:19;;;;;;;29.55;20.10;;;11.10;99.90;;;;;;5074221;28;20049;-77
2023/04/17 10:43:02;;;;;;;32.13;21.17;;;11.00;99.90;;;;;;5067914;28;20065;-77
2023/04/17 10:46:02;;;;;;;31.00;19.58;;;11.00;99.90;;;;;;5071922;28;20024;-77
2023/04/17 10:48:45;;;;;;;29.92;20.13;;;11.00;99.90;;;;;;5054952;28;20029;-77
2023/04/17 10:51:22;;;;;;;33.63;20.77;;;11.00;99.90;;;;;;5055272;28;20025;-77
2023/04/17 10:53:50;;;;;;;35.83;23.60;;;11.10;99.90;;;;;;5053183;28;20067;-77
2023/04/17 10:56:23;;;;;;;25.63;17.35;;;11.10;99.90;;;;;;5055767;28;20108;-76
2023/04/17 10:59:03;;;;;;;26.30;16.95;;;11.20;99.90;;;;;;5066511;28;20020;-76
2023/04/17 11:01:56;;;;;;;25.02;16.85;;;11.20;99.90;;;;;;5072168;28;20024;-76
2023/04/17 11:04:32;;;;;;;21.50;13.95;;;11.30;99.90;;;;;;5073853;28;20029;-76
2023/04/17 11:06:58;;;;;;;17.15;9.98;;;11.20;99.90;;;;;;5073278;28;20390;-76
2023/04/17 11:09:27;;;;;;;15.75;11.38;;;11.20;99.90;;;;;;5074078;28;20020;-76
2023/04/17 11:11:53;;;;;;;16.67;11.73;;;11.30;99.90;;;;;;5074002;28;20020;-76
2023/04/17 11:14:20;;;;;;;18.33;11.75;;;11.30;99.90;;;;;;5072671;28;20030;-76
2023/04/17 11:16:49;;;;;;;21.92;12.90;;;11.10;99.90;;;;;;5072672;28;20508;-76
2023/04/17 11:19:22;;;;;;;20.48;13.85;;;11.00;99.90;;;;;;5070020;28;20176;-76
2023/04/17 11:21:53;;;;;;;24.02;14.32;;;10.80;99.90;;;;;;5072360;28;20393;-76
2023/04/17 11:24:26;;;;;;;23.15;13.85;;;10.90;99.90;;;;;;5073750;28;20017;-76
2023/04/17 11:26:52;;;;;;;17.00;12.18;;;10.80;99.90;;;;;;5075331;28;20021;-76
2023/04/17 11:29:20;;;;;;;17.38;12.43;;;10.60;99.90;;;;;;5073547;28;20021;-76
2023/04/17 11:31:47;;;;;;;20.67;13.02;;;10.60;99.90;;;;;;5073657;28;20028;-76
2023/04/17 11:34:14;;;;;;;21.85;13.52;;;10.50;99.90;;;;;;5068189;28;20542;-77
2023/04/17 11:36:47;;;;;;;19.38;12.85;;;10.50;99.90;;;;;;5073664;28;20063;-77
2023/04/17 11:39:14;;;;;;;23.17;14.35;;;10.50;99.90;;;;;;5067217;28;20377;-78
2023/04/17 11:41:42;;;;;;;21.52;13.55;;;10.50;99.90;;;;;;5053339;28;20120;-77
2023/04/17 11:44:08;;;;;;;24.58;15.68;;;10.50;99.90;;;;;;5070770;28;20029;-76
2023/04/17 11:46:35;;;;;;;25.60;16.45;;;10.60;99.90;;;;;;5073883;28;20482;-77
2023/04/17 11:49:04;;;;;;;21.20;14.75;;;10.60;99.90;;;;;;5074074;28;20049;-77
2023/04/17 11:51:33;;;;;;;23.60;15.70;;;10.70;99.90;;;;;;5073803;28;20098;-77
2023/04/17 11:53:59;;;;;;;21.65;14.88;;;10.70;99.90;;;;;;5073720;28;20028;-76
2023/04/17 11:56:29;;;;;;;25.80;15.80;;;10.80;99.90;;;;;;5073215;28;20450;-76
2023/04/17 11:58:56;;;;;;;28.65;17.25;;;10.90;99.90;;;;;;5072337;28;20115;-76
2023/04/17 12:01:27;;;;;;;25.08;16.50;;;11.00;99.90;;;;;;5071928;28;20032;-77
2023/04/17 12:03:54;;;;;;;24.15;16.67;;;11.10;99.90;;;;;;5071543;28;20023;-76
2023/04/17 12:06:20;;;;;;;23.73;16.08;;;11.10;99.90;;;;;;5071731;28;20043;-77
2023/04/17 12:08:50;;;;;;;23.75;15.82;;;11.10;99.90;;;;;;5072784;28;20024;-77
2023/04/17 12:11:25;;;;;;;27.02;16.27;;;11.10;99.90;;;;;;5054027;28;20039;-77
2023/04/17 12:13:54;;;;;;;35.83;17.55;;;11.00;99.90;;;;;;5071638;28;20037;-77
2023/04/17 12:16:20;;;;;;;25.73;16.25;;;11.20;99.90;;;;;;5070445;28;20020;-77
2023/04/17 12:18:45;;;;;;;27.35;16.38;;;11.10;99.90;;;;;;5071300;28;20104;-77
2023/04/17 12:21:12;;;;;;;30.85;17.92;;;11.10;99.90;;;;;;5070800;28;20071;-76
2023/04/17 12:23:37;;;;;;;24.55;16.55;;;11.20;99.90;;;;;;5071199;28;20024;-75
2023/04/17 12:26:03;;;;;;;32.85;17.88;;;11.20;99.90;;;;;;5069968;28;20398;-76
2023/04/17 12:28:29;;;;;;;26.08;16.08;;;11.30;99.90;;;;;;5072457;28;20036;-76
2023/04/17 12:30:55;;;;;;;27.15;17.25;;;11.30;99.90;;;;;;5073615;28;20031;-76
2023/04/17 12:33:21;;;;;;;28.85;16.40;;;11.20;99.90;;;;;;5084840;28;20052;-75
2023/04/17 12:35:46;;;;;;;28.20;18.23;;;11.30;99.90;;;;;;5092340;28;20027;-76